Time;durP1;ratioP1;P1;durP2;ratioP2;P2;SDS_P1;SDS_P2;PMS_P1;PMS_P2;Temp;Humidity;BMP_temperature;BMP_pressure;BME280_temperature;BME280_humidity;BME280_pressure;Samples;Min_cycle;Max_cycle;Signal;HPM_P1;HPM_P2
2022/01/08 00:02:03;;;;;;;;;;;22.90;22.00;;;;;;5120446;28;19927;-51
2022/01/08 00:04:29;;;;;;;;;;;22.90;22.00;;;;;;5125150;28;20000;-55
2022/01/08 00:06:56;;;;;;;;;;;23.00;22.00;;;;;;5121850;28;19975;-49
2022/01/08 00:09:22;;;;;;;;;;;23.10;21.90;;;;;;5120648;28;19931;-48
2022/01/08 00:11:47;;;;;;;;;;;23.00;21.80;;;;;;5126130;28;19973;-49
2022/01/08 00:14:14;;;;;;;;;;;23.00;21.80;;;;;;5120728;28;19927;-50
2022/01/08 00:16:40;;;;;;;;;;;23.10;21.70;;;;;;5118122;28;19923;-51
2022/01/08 00:19:06;;;;;;;;;;;23.00;21.80;;;;;;5126048;28;19971;-47
2022/01/08 00:21:32;;;;;;;;;;;23.10;21.80;;;;;;5100484;28;19947;-47
2022/01/08 00:23:58;;;;;;;;;;;23.10;21.70;;;;;;5121672;28;19967;-51
2022/01/08 00:26:24;;;;;;;;;;;23.20;21.60;;;;;;5124510;28;20283;-45
2022/01/08 00:28:50;;;;;;;;;;;23.20;21.60;;;;;;5120552;28;19923;-47
2022/01/08 00:31:15;;;;;;;;;;;23.30;21.50;;;;;;5125859;28;19927;-53
2022/01/08 00:33:41;;;;;;;;;;;23.00;21.70;;;;;;5119337;27;19955;-50
2022/01/08 00:36:07;;;;;;;;;;;23.00;21.70;;;;;;5122890;28;19930;-48
2022/01/08 00:38:33;;;;;;;;;;;23.00;21.90;;;;;;5129442;28;20383;-48
2022/01/08 00:40:58;;;;;;;;;;;23.00;21.80;;;;;;5123694;28;19946;-46
2022/01/08 00:43:24;;;;;;;;;;;22.90;21.80;;;;;;5123648;28;20366;-49
2022/01/08 00:45:50;;;;;;;;;;;23.10;21.70;;;;;;5129254;28;19989;-45
2022/01/08 00:48:16;;;;;;;;;;;23.10;21.60;;;;;;5123990;28;19927;-45
2022/01/08 00:50:42;;;;;;;;;;;23.20;21.50;;;;;;5129325;28;19923;-48
2022/01/08 00:53:07;;;;;;;;;;;23.20;21.50;;;;;;5121444;28;19924;-49
2022/01/08 00:55:33;;;;;;;;;;;23.10;21.60;;;;;;5123750;28;19938;-49
2022/01/08 00:57:59;;;;;;;;;;;23.20;21.50;;;;;;5128881;28;19943;-46
2022/01/08 01:00:25;;;;;;;;;;;23.20;21.40;;;;;;5123516;28;19928;-47
2022/01/08 01:02:50;;;;;;;;;;;23.30;21.40;;;;;;5123463;28;19931;-46
2022/01/08 01:05:16;;;;;;;;;;;23.30;21.40;;;;;;5129157;28;20385;-48
2022/01/08 01:07:42;;;;;;;;;;;23.20;21.40;;;;;;5123708;28;19931;-48
2022/01/08 01:10:08;;;;;;;;;;;23.20;21.40;;;;;;5128731;28;19923;-50
2022/01/08 01:12:34;;;;;;;;;;;23.10;21.40;;;;;;5121814;28;19923;-47
2022/01/08 01:15:00;;;;;;;;;;;23.20;21.50;;;;;;5123395;28;20375;-46
2022/01/08 01:17:25;;;;;;;;;;;23.20;21.50;;;;;;5110562;28;19927;-50
2022/01/08 01:19:51;;;;;;;;;;;23.20;21.50;;;;;;5123195;28;19928;-52
2022/01/08 01:22:20;;;;;;;;;;;23.10;21.60;;;;;;5123238;28;19927;-54
2022/01/08 01:24:48;;;;;;;;;;;23.00;21.80;;;;;;5128882;28;20310;-53
2022/01/08 01:27:44;;;;;;;;;;;22.80;21.90;;;;;;5123260;28;20267;-54
2022/01/08 01:30:10;;;;;;;;;;;22.80;22.00;;;;;;5121057;28;19937;-49
2022/01/08 01:48:50;;;;;;;;;;;22.80;22.20;;;;;;5126364;28;20426;-50
2022/01/08 01:51:17;;;;;;;;;;;22.90;22.10;;;;;;5122725;28;19931;-49
2022/01/08 01:53:43;;;;;;;;;;;22.80;22.10;;;;;;5122652;28;19923;-46
2022/01/08 01:56:08;;;;;;;;;;;22.90;22.10;;;;;;5128047;28;20291;-49
2022/01/08 01:58:34;;;;;;;;;;;22.80;22.10;;;;;;5122331;28;19927;-48
2022/01/08 02:01:01;;;;;;;;;;;22.90;22.10;;;;;;5122639;28;20081;-48
2022/01/08 02:03:27;;;;;;;;;;;22.90;22.00;;;;;;5128192;28;19941;-48
2022/01/08 02:05:52;;;;;;;;;;;23.00;22.10;;;;;;5122136;28;19931;-49
2022/01/08 02:08:18;;;;;;;;;;;23.00;22.00;;;;;;5126352;28;19937;-49
2022/01/08 02:10:44;;;;;;;;;;;23.00;22.00;;;;;;5122325;28;19946;-48
2022/01/08 02:13:10;;;;;;;;;;;23.00;22.00;;;;;;5122149;28;19961;-47
2022/01/08 02:15:36;;;;;;;;;;;22.90;22.10;;;;;;5127580;28;19928;-46
2022/01/08 02:18:02;;;;;;;;;;;22.90;22.20;;;;;;5103826;28;20377;-49
2022/01/08 02:20:28;;;;;;;;;;;23.00;22.10;;;;;;5122233;28;20396;-47
2022/01/08 02:22:54;;;;;;;;;;;23.10;22.10;;;;;;5127900;28;19930;-47
2022/01/08 02:25:20;;;;;;;;;;;23.10;22.10;;;;;;5120389;28;20427;-48
2022/01/08 02:27:46;;;;;;;;;;;23.10;21.90;;;;;;5125894;28;19930;-50
2022/01/08 02:30:12;;;;;;;;;;;23.10;22.00;;;;;;5124198;28;19923;-47
2022/01/08 02:32:41;;;;;;;;;;;23.20;22.00;;;;;;5122203;28;19934;-53
2022/01/08 02:35:06;;;;;;;;;;;23.10;22.00;;;;;;5127515;28;19923;-49
2022/01/08 02:37:34;;;;;;;;;;;23.00;22.20;;;;;;5122185;28;19923;-49
2022/01/08 02:40:02;;;;;;;;;;;23.00;22.30;;;;;;5122148;28;20022;-52
2022/01/08 02:42:36;;;;;;;;;;;22.90;22.50;;;;;;5127591;28;20076;-49
2022/01/08 02:45:02;;;;;;;;;;;22.90;22.60;;;;;;5120147;28;20332;-49
2022/01/08 02:47:28;;;;;;;;;;;22.90;22.60;;;;;;5121894;28;19984;-48
2022/01/08 02:49:54;;;;;;;;;;;23.00;22.50;;;;;;5127042;28;19931;-50
2022/01/08 02:52:20;;;;;;;;;;;23.00;22.60;;;;;;5121659;28;19923;-47
2022/01/08 02:54:45;;;;;;;;;;;23.10;22.50;;;;;;5127182;28;20133;-46
2022/01/08 02:57:11;;;;;;;;;;;23.10;22.60;;;;;;5121660;27;20378;-47
2022/01/08 02:59:37;;;;;;;;;;;23.20;22.50;;;;;;5121617;28;20223;-52
2022/01/08 03:02:03;;;;;;;;;;;23.10;22.60;;;;;;5125187;28;19946;-51
2022/01/08 03:04:28;;;;;;;;;;;23.00;22.70;;;;;;5121363;28;20446;-50
2022/01/08 03:06:54;;;;;;;;;;;23.10;22.70;;;;;;5121676;28;19931;-48
2022/01/08 03:09:20;;;;;;;;;;;23.10;22.60;;;;;;5126709;28;19923;-50
2022/01/08 03:11:46;;;;;;;;;;;23.00;22.80;;;;;;5121330;28;19945;-48
2022/01/08 03:14:11;;;;;;;;;;;23.20;22.70;;;;;;5107624;28;20298;-56
2022/01/08 03:16:38;;;;;;;;;;;23.20;22.70;;;;;;5122855;28;19950;-48
2022/01/08 03:19:09;;;;;;;;;;;23.20;22.80;;;;;;5121681;28;20014;-52
2022/01/08 03:21:38;;;;;;;;;;;23.10;22.90;;;;;;5124569;28;19923;-50
2022/01/08 03:24:06;;;;;;;;;;;23.00;23.10;;;;;;5121420;28;20044;-51
2022/01/08 03:26:32;;;;;;;;;;;23.00;23.10;;;;;;5121272;28;19924;-48
2022/01/08 03:28:58;;;;;;;;;;;23.00;23.30;;;;;;5126604;28;19931;-51
2022/01/08 03:31:24;;;;;;;;;;;23.00;23.30;;;;;;5120830;28;19929;-53
2022/01/08 03:33:50;;;;;;;;;;;23.00;23.50;;;;;;5121293;28;20554;-52
2022/01/08 03:36:16;;;;;;;;;;;23.00;23.50;;;;;;5126536;28;19968;-48
2022/01/08 03:38:42;;;;;;;;;;;23.00;23.70;;;;;;5120094;28;19938;-51
2022/01/08 03:41:08;;;;;;;;;;;23.00;23.80;;;;;;5125663;28;19924;-49
2022/01/08 03:43:33;;;;;;;;;;;23.00;23.90;;;;;;5120901;28;19923;-48
2022/01/08 03:46:02;;;;;;;;;;;23.10;23.90;;;;;;5102401;28;19985;-48
2022/01/08 03:51:09;;;;;;;;;;;23.20;24.10;;;;;;5120755;28;19924;-47
2022/01/08 03:53:35;;;;;;;;;;;23.20;24.10;;;;;;5121542;28;19934;-60
2022/01/08 03:56:00;;;;;;;;;;;23.20;24.20;;;;;;5126409;28;19934;-49
2022/01/08 03:58:27;;;;;;;;;;;22.80;24.60;;;;;;5118989;28;19924;-54
2022/01/08 04:00:53;;;;;;;;;;;22.80;24.70;;;;;;5120928;28;19927;-51
2022/01/08 04:03:19;;;;;;;;;;;22.80;24.80;;;;;;5125998;28;19974;-52
2022/01/08 04:05:48;;;;;;;;;;;22.80;24.90;;;;;;5120643;28;20111;-49
2022/01/08 04:08:14;;;;;;;;;;;22.80;24.90;;;;;;5126051;27;19923;-53
2022/01/08 04:10:40;;;;;;;;;;;22.80;25.00;;;;;;5120305;28;19923;-50
2022/01/08 04:13:11;;;;;;;;;;;22.90;24.90;;;;;;5120729;28;20294;-49
2022/01/08 04:15:40;;;;;;;;;;;22.80;25.00;;;;;;5125273;28;19923;-51
2022/01/08 04:18:06;;;;;;;;;;;22.80;25.10;;;;;;5119539;28;19923;-51
2022/01/08 04:20:35;;;;;;;;;;;22.90;25.00;;;;;;5120166;28;20460;-52
2022/01/08 04:23:02;;;;;;;;;;;22.90;25.00;;;;;;5125811;28;19931;-52
2022/01/08 04:25:27;;;;;;;;;;;22.90;25.00;;;;;;5120256;28;19972;-49
2022/01/08 04:27:53;;;;;;;;;;;23.00;24.90;;;;;;5121528;28;19927;-55
2022/01/08 04:30:19;;;;;;;;;;;23.00;24.90;;;;;;5125096;28;20286;-50
2022/01/08 04:32:45;;;;;;;;;;;23.00;24.80;;;;;;5120512;28;19963;-50
2022/01/08 04:35:11;;;;;;;;;;;23.10;24.80;;;;;;5123668;28;19931;-50
2022/01/08 04:37:36;;;;;;;;;;;23.10;24.80;;;;;;5099882;28;19992;-51
2022/01/08 04:40:02;;;;;;;;;;;23.10;24.70;;;;;;5120027;28;20291;-50
2022/01/08 04:42:28;;;;;;;;;;;23.10;24.80;;;;;;5125536;28;20019;-52
2022/01/08 04:44:55;;;;;;;;;;;23.10;24.80;;;;;;5120242;28;19963;-52
2022/01/08 04:47:20;;;;;;;;;;;23.20;24.70;;;;;;5120415;28;20401;-49
2022/01/08 04:49:46;;;;;;;;;;;23.20;24.80;;;;;;5125355;28;19936;-49
2022/01/08 04:52:12;;;;;;;;;;;23.20;24.80;;;;;;5119886;28;19930;-49
2022/01/08 04:54:38;;;;;;;;;;;23.30;24.80;;;;;;5123647;28;19927;-49
2022/01/08 04:57:03;;;;;;;;;;;23.10;25.00;;;;;;5119929;28;19927;-53
2022/01/08 04:59:29;;;;;;;;;;;23.20;24.90;;;;;;5119721;28;20290;-49
2022/01/08 05:01:55;;;;;;;;;;;23.20;24.90;;;;;;5125370;28;19924;-50
2022/01/08 05:04:21;;;;;;;;;;;23.00;25.20;;;;;;5119737;28;19975;-51
2022/01/08 05:06:46;;;;;;;;;;;23.00;25.30;;;;;;5119907;28;20194;-49
2022/01/08 05:09:13;;;;;;;;;;;23.00;25.30;;;;;;5125336;28;19923;-51
2022/01/08 05:11:38;;;;;;;;;;;23.00;25.20;;;;;;5118012;28;20006;-51
2022/01/08 05:14:05;;;;;;;;;;;23.00;25.30;;;;;;5125091;28;19932;-51
2022/01/08 05:16:31;;;;;;;;;;;23.00;25.30;;;;;;5119648;28;20529;-51
2022/01/08 05:18:57;;;;;;;;;;;22.90;25.40;;;;;;5119513;28;20018;-50
2022/01/08 05:21:29;;;;;;;;;;;22.90;25.40;;;;;;5127357;27;20010;-52
2022/01/08 05:23:57;;;;;;;;;;;23.00;25.30;;;;;;5105137;28;19934;-49
2022/01/08 05:26:25;;;;;;;;;;;22.90;25.40;;;;;;5123080;28;19927;-49
2022/01/08 05:28:51;;;;;;;;;;;23.00;25.50;;;;;;5128508;28;19946;-52
2022/01/08 05:31:19;;;;;;;;;;;23.00;25.40;;;;;;5101380;28;19924;-50
2022/01/08 05:33:44;;;;;;;;;;;23.00;25.40;;;;;;5123315;28;20386;-54
2022/01/08 05:36:10;;;;;;;;;;;23.00;25.50;;;;;;5109937;28;19930;-49
2022/01/08 05:38:36;;;;;;;;;;;23.00;25.50;;;;;;5123062;28;20387;-48
2022/01/08 05:41:02;;;;;;;;;;;23.00;25.40;;;;;;5128117;28;19928;-50
2022/01/08 05:43:28;;;;;;;;;;;23.00;25.50;;;;;;5122991;28;19924;-51
2022/01/08 05:45:53;;;;;;;;;;;23.10;25.40;;;;;;5123134;28;19940;-49
2022/01/08 05:48:21;;;;;;;;;;;23.10;25.30;;;;;;5127164;28;19980;-50
2022/01/08 05:50:49;;;;;;;;;;;23.00;25.50;;;;;;5122033;28;19930;-48
2022/01/08 05:53:16;;;;;;;;;;;23.10;25.40;;;;;;5122727;28;20187;-52
2022/01/08 05:55:42;;;;;;;;;;;23.10;25.40;;;;;;5127851;28;19924;-50
2022/01/08 05:58:07;;;;;;;;;;;23.10;25.40;;;;;;5122480;28;20399;-46
2022/01/08 06:00:33;;;;;;;;;;;23.20;25.30;;;;;;5128194;28;20324;-50
2022/01/08 06:02:59;;;;;;;;;;;23.20;25.20;;;;;;5122567;28;19923;-55
2022/01/08 06:05:25;;;;;;;;;;;23.10;25.30;;;;;;5122749;28;19930;-51
2022/01/08 06:07:51;;;;;;;;;;;23.00;25.40;;;;;;5125983;28;19973;-50
2022/01/08 06:10:16;;;;;;;;;;;23.00;25.30;;;;;;5122560;28;19923;-51
2022/01/08 06:12:42;;;;;;;;;;;23.10;25.20;;;;;;5122404;28;19972;-52
2022/01/08 06:15:08;;;;;;;;;;;23.10;25.10;;;;;;5127823;28;19923;-50
2022/01/08 06:17:34;;;;;;;;;;;23.10;25.00;;;;;;5122237;28;19928;-50
2022/01/08 06:20:00;;;;;;;;;;;23.10;24.90;;;;;;5127724;28;19965;-52
2022/01/08 06:22:25;;;;;;;;;;;23.10;24.90;;;;;;5122765;28;19923;-50
2022/01/08 06:24:51;;;;;;;;;;;23.10;24.80;;;;;;5122471;28;19924;-51
2022/01/08 06:27:17;;;;;;;;;;;23.10;24.80;;;;;;5125819;28;19931;-50
2022/01/08 06:29:43;;;;;;;;;;;23.00;24.80;;;;;;5122021;28;19935;-49
2022/01/08 06:32:08;;;;;;;;;;;23.00;24.60;;;;;;5121277;27;19946;-49
2022/01/08 06:34:34;;;;;;;;;;;23.10;24.50;;;;;;5127531;28;19975;-47
2022/01/08 06:37:00;;;;;;;;;;;23.20;24.40;;;;;;5121933;28;20328;-49
2022/01/08 06:39:26;;;;;;;;;;;23.20;24.30;;;;;;5125397;28;20366;-53
2022/01/08 06:41:52;;;;;;;;;;;23.10;24.30;;;;;;5124807;28;19949;-48
2022/01/08 06:44:17;;;;;;;;;;;23.20;24.20;;;;;;5120010;28;19935;-47
2022/01/08 06:46:43;;;;;;;;;;;23.20;24.20;;;;;;5127302;28;19930;-47
2022/01/08 06:49:09;;;;;;;;;;;23.30;24.10;;;;;;5122054;28;19943;-53
2022/01/08 06:51:35;;;;;;;;;;;23.10;24.20;;;;;;5121788;28;19924;-54
2022/01/08 06:54:00;;;;;;;;;;;23.00;24.30;;;;;;5127126;28;20280;-50
2022/01/08 06:56:26;;;;;;;;;;;23.00;24.30;;;;;;5121947;28;19931;-51
2022/01/08 06:58:52;;;;;;;;;;;23.00;24.20;;;;;;5104996;28;19948;-57
2022/01/08 07:01:18;;;;;;;;;;;23.00;24.20;;;;;;5126165;28;19932;-50
2022/01/08 07:03:44;;;;;;;;;;;23.10;24.10;;;;;;5119778;28;19978;-50
2022/01/08 07:06:09;;;;;;;;;;;23.10;24.00;;;;;;5127059;28;19927;-49
2022/01/08 07:08:35;;;;;;;;;;;23.00;24.00;;;;;;5121374;28;19923;-53
2022/01/08 07:11:01;;;;;;;;;;;23.10;24.00;;;;;;5121504;28;19971;-52
2022/01/08 07:13:27;;;;;;;;;;;23.10;23.90;;;;;;5126724;28;20374;-52
2022/01/08 07:15:52;;;;;;;;;;;23.10;23.90;;;;;;5121696;28;20026;-51
2022/01/08 07:18:18;;;;;;;;;;;23.00;23.90;;;;;;5121506;28;20304;-49
2022/01/08 07:20:44;;;;;;;;;;;23.20;23.70;;;;;;5106760;28;19985;-49
2022/01/08 07:23:10;;;;;;;;;;;23.10;23.80;;;;;;5120360;28;19923;-58
2022/01/08 07:25:36;;;;;;;;;;;23.10;23.90;;;;;;5126832;28;19923;-51
2022/01/08 07:28:01;;;;;;;;;;;23.00;24.00;;;;;;5121006;28;19984;-52
2022/01/08 07:30:27;;;;;;;;;;;23.10;24.00;;;;;;5121019;28;19938;-52
2022/01/08 07:32:53;;;;;;;;;;;23.10;23.90;;;;;;5126552;28;19924;-51
2022/01/08 07:35:21;;;;;;;;;;;23.10;23.90;;;;;;5121330;28;19931;-51
2022/01/08 07:37:47;;;;;;;;;;;23.10;23.90;;;;;;5121198;28;20297;-48
2022/01/08 07:40:13;;;;;;;;;;;23.10;23.90;;;;;;5124313;28;20351;-47
2022/01/08 07:42:39;;;;;;;;;;;23.20;24.00;;;;;;5120884;28;19927;-49
2022/01/08 07:45:05;;;;;;;;;;;23.20;23.90;;;;;;5125138;27;19933;-50
2022/01/08 07:47:31;;;;;;;;;;;23.30;23.90;;;;;;5120983;28;19923;-48
2022/01/08 07:49:57;;;;;;;;;;;23.20;23.90;;;;;;5120840;28;20371;-52
2022/01/08 07:52:22;;;;;;;;;;;23.20;23.90;;;;;;5126529;28;19984;-52
2022/01/08 07:54:48;;;;;;;;;;;23.10;24.00;;;;;;5121293;28;19934;-51
2022/01/08 07:57:14;;;;;;;;;;;23.00;24.10;;;;;;5120912;28;20176;-49
2022/01/08 07:59:42;;;;;;;;;;;23.20;23.90;;;;;;5124164;28;19923;-51
2022/01/08 08:02:08;;;;;;;;;;;23.20;24.00;;;;;;5120607;28;20010;-51
2022/01/08 08:04:34;;;;;;;;;;;23.10;24.10;;;;;;5124871;28;19924;-57
2022/01/08 08:07:00;;;;;;;;;;;23.00;24.10;;;;;;5122270;28;19935;-49
2022/01/08 08:09:26;;;;;;;;;;;23.10;24.00;;;;;;5120625;28;19927;-49
2022/01/08 08:11:51;;;;;;;;;;;23.00;24.10;;;;;;5126186;28;20515;-52
2022/01/08 08:14:17;;;;;;;;;;;23.10;24.00;;;;;;5120845;28;19927;-48
2022/01/08 08:16:43;;;;;;;;;;;23.10;24.00;;;;;;5119307;28;20435;-52
2022/01/08 08:19:09;;;;;;;;;;;23.10;24.00;;;;;;5125733;28;19924;-47
2022/01/08 08:21:34;;;;;;;;;;;23.20;23.80;;;;;;5120456;28;19935;-48
2022/01/08 08:24:03;;;;;;;;;;;23.20;23.80;;;;;;5122715;28;20407;-54
2022/01/08 08:26:29;;;;;;;;;;;23.30;23.70;;;;;;5124813;28;19927;-49
2022/01/08 08:28:54;;;;;;;;;;;23.20;23.70;;;;;;5120439;28;20378;-50
2022/01/08 08:31:20;;;;;;;;;;;23.30;23.60;;;;;;5125760;28;19937;-53
2022/01/08 08:33:46;;;;;;;;;;;23.10;23.70;;;;;;5120590;28;19927;-51
2022/01/08 08:36:12;;;;;;;;;;;22.90;23.80;;;;;;5118216;28;20276;-54
2022/01/08 08:38:38;;;;;;;;;;;22.90;23.70;;;;;;5125874;28;19923;-51
2022/01/08 08:41:04;;;;;;;;;;;22.90;23.70;;;;;;5120410;28;19923;-51
2022/01/08 08:43:29;;;;;;;;;;;23.00;23.60;;;;;;5120179;28;20298;-53
2022/01/08 08:45:55;;;;;;;;;;;23.00;23.50;;;;;;5125464;28;20022;-52
2022/01/08 08:48:21;;;;;;;;;;;23.00;23.40;;;;;;5120442;28;19984;-50
2022/01/08 08:50:47;;;;;;;;;;;22.90;23.50;;;;;;5125490;28;20329;-50
2022/01/08 08:53:12;;;;;;;;;;;23.00;23.40;;;;;;5119704;28;19927;-52
2022/01/08 08:55:38;;;;;;;;;;;23.00;23.30;;;;;;5120220;27;19942;-48
2022/01/08 08:58:04;;;;;;;;;;;23.00;23.20;;;;;;5129209;28;20390;-52
2022/01/08 09:00:30;;;;;;;;;;;23.10;23.10;;;;;;5123582;28;20286;-50
2022/01/08 09:02:55;;;;;;;;;;;23.10;23.10;;;;;;5123434;28;19996;-50
2022/01/08 09:05:21;;;;;;;;;;;23.10;23.00;;;;;;5129194;28;19928;-50
2022/01/08 09:07:47;;;;;;;;;;;23.00;23.00;;;;;;5123705;28;19924;-49
2022/01/08 09:10:13;;;;;;;;;;;23.10;23.00;;;;;;5129164;28;19980;-47
2022/01/08 09:12:39;;;;;;;;;;;23.10;22.90;;;;;;5121540;28;19923;-47
2022/01/08 09:15:05;;;;;;;;;;;23.10;23.00;;;;;;5123546;28;20032;-46
2022/01/08 09:17:31;;;;;;;;;;;23.10;23.00;;;;;;5128758;28;20010;-48
2022/01/08 09:19:57;;;;;;;;;;;23.20;22.90;;;;;;5123029;28;19972;-53
2022/01/08 09:22:23;;;;;;;;;;;23.30;22.80;;;;;;5123088;28;20297;-50
2022/01/08 09:24:49;;;;;;;;;;;23.10;22.90;;;;;;5128586;28;19923;-50
2022/01/08 09:27:14;;;;;;;;;;;23.00;22.90;;;;;;5123252;28;20062;-50
2022/01/08 09:29:40;;;;;;;;;;;23.00;23.00;;;;;;5129009;28;19930;-49
2022/01/08 09:32:06;;;;;;;;;;;23.10;22.90;;;;;;5121066;28;19972;-51
2022/01/08 09:34:32;;;;;;;;;;;23.10;22.90;;;;;;5122886;28;19924;-48
2022/01/08 09:36:58;;;;;;;;;;;23.10;22.90;;;;;;5128531;28;19927;-50
2022/01/08 09:39:24;;;;;;;;;;;23.10;22.80;;;;;;5122920;28;20010;-48
2022/01/08 09:41:50;;;;;;;;;;;23.10;22.80;;;;;;5122821;28;20683;-48
2022/01/08 09:44:16;;;;;;;;;;;23.20;22.70;;;;;;5128620;28;19936;-49
2022/01/08 09:46:42;;;;;;;;;;;23.10;22.80;;;;;;5123166;28;20405;-52
2022/01/08 09:49:07;;;;;;;;;;;23.20;22.70;;;;;;5125908;28;20354;-57
2022/01/08 09:51:33;;;;;;;;;;;23.00;22.80;;;;;;5124106;28;19935;-53
2022/01/08 09:53:59;;;;;;;;;;;22.90;22.80;;;;;;5122778;28;19930;-50
2022/01/08 09:56:26;;;;;;;;;;;22.90;22.80;;;;;;5127942;28;19928;-48
2022/01/08 09:58:52;;;;;;;;;;;22.90;22.80;;;;;;5122426;28;20022;-48
2022/01/08 10:01:31;;;;;;;;;;;23.00;22.70;;;;;;5122640;28;20984;-48
2022/01/08 10:03:58;;;;;;;;;;;22.90;22.70;;;;;;5128307;28;19980;-49
2022/01/08 10:06:25;;;;;;;;;;;23.10;22.60;;;;;;5122033;27;19927;-50
2022/01/08 10:08:51;;;;;;;;;;;23.00;22.60;;;;;;5120126;28;20467;-51
2022/01/08 10:11:17;;;;;;;;;;;23.10;22.50;;;;;;5127915;28;19943;-48
2022/01/08 10:13:45;;;;;;;;;;;23.00;22.50;;;;;;5122384;28;20014;-48
2022/01/08 10:18:59;;;;;;;;;;;23.00;22.50;;;;;;5128141;28;20363;-48
2022/01/08 10:21:26;;;;;;;;;;;23.10;22.40;;;;;;5122849;28;19931;-45
2022/01/08 10:23:56;;;;;;;;;;;23.20;22.30;;;;;;5128097;28;19924;-51
2022/01/08 10:26:23;;;;;;;;;;;23.10;22.30;;;;;;5121899;28;19928;-49
2022/01/08 10:28:56;;;;;;;;;;;23.00;22.30;;;;;;5121948;28;19931;-50
2022/01/08 10:31:22;;;;;;;;;;;23.10;22.20;;;;;;5127625;28;19927;-51
2022/01/08 10:33:51;;;;;;;;;;;23.10;22.20;;;;;;5122060;28;20327;-51
2022/01/08 10:36:21;;;;;;;;;;;23.20;22.10;;;;;;5122190;28;20371;-46
2022/01/08 10:38:51;;;;;;;;;;;23.20;22.10;;;;;;5127572;28;20404;-46
2022/01/08 10:41:17;;;;;;;;;;;23.20;22.00;;;;;;5122197;28;19924;-45
2022/01/08 10:43:44;;;;;;;;;;;23.20;22.00;;;;;;5122165;28;20268;-53
2022/01/08 10:46:17;;;;;;;;;;;22.90;22.10;;;;;;5125344;28;20363;-53
2022/01/08 10:48:52;;;;;;;;;;;22.90;22.20;;;;;;5121978;28;19924;-50
2022/01/08 10:51:21;;;;;;;;;;;22.90;22.20;;;;;;5121790;28;19923;-49
2022/01/08 10:54:04;;;;;;;;;;;22.90;22.10;;;;;;5127376;28;19928;-50
2022/01/08 10:56:31;;;;;;;;;;;22.90;22.10;;;;;;5122101;28;19930;-55
2022/01/08 10:59:01;;;;;;;;;;;22.90;22.10;;;;;;5122585;28;19929;-54
2022/01/08 11:01:47;;;;;;;;;;;23.00;22.10;;;;;;5127409;28;19929;-50
2022/01/08 11:04:30;;;;;;;;;;;22.90;22.10;;;;;;5117313;28;20320;-50
2022/01/08 11:06:56;;;;;;;;;;;23.00;21.90;;;;;;5121783;28;20195;-50
2022/01/08 11:09:22;;;;;;;;;;;23.00;21.80;;;;;;5127012;28;19933;-50
2022/01/08 11:11:50;;;;;;;;;;;22.90;21.90;;;;;;5101651;28;19968;-50
2022/01/08 11:14:24;;;;;;;;;;;23.10;21.70;;;;;;5126392;28;19927;-54
2022/01/08 11:16:51;;;;;;;;;;;23.00;21.70;;;;;;5126290;28;20068;-47
2022/01/08 11:19:16;;;;;;;;;;;23.10;21.60;;;;;;5121147;27;19939;-46
2022/01/08 11:21:42;;;;;;;;;;;23.10;21.60;;;;;;5125746;28;19923;-47
2022/01/08 11:24:08;;;;;;;;;;;23.20;21.50;;;;;;5120565;28;19931;-47
2022/01/08 11:26:34;;;;;;;;;;;23.20;21.50;;;;;;5121293;28;19931;-55
2022/01/08 11:28:59;;;;;;;;;;;23.00;21.50;;;;;;5126529;28;20425;-49
2022/01/08 11:31:29;;;;;;;;;;;23.00;21.70;;;;;;5121104;28;20260;-49
2022/01/08 11:33:59;;;;;;;;;;;22.90;21.80;;;;;;5121318;28;19931;-49
2022/01/08 11:36:25;;;;;;;;;;;22.90;21.80;;;;;;5127086;28;19967;-48
2022/01/08 11:38:51;;;;;;;;;;;22.80;21.90;;;;;;5121100;28;20393;-52
2022/01/08 11:41:16;;;;;;;;;;;23.00;21.70;;;;;;5106089;28;19923;-51
2022/01/08 11:43:42;;;;;;;;;;;22.90;21.70;;;;;;5102673;28;20329;-49
2022/01/08 11:46:08;;;;;;;;;;;22.90;21.60;;;;;;5120995;28;19927;-51
2022/01/08 11:48:35;;;;;;;;;;;23.00;21.40;;;;;;5108431;28;19948;-49
2022/01/08 11:51:01;;;;;;;;;;;23.00;21.30;;;;;;5102371;28;20433;-51
2022/01/08 11:53:27;;;;;;;;;;;23.00;21.30;;;;;;5121055;28;20127;-51
2022/01/08 11:55:54;;;;;;;;;;;23.00;21.30;;;;;;5126670;28;20445;-50
2022/01/08 11:58:23;;;;;;;;;;;23.10;21.20;;;;;;5120852;28;19927;-56
2022/01/08 12:00:50;;;;;;;;;;;22.90;21.40;;;;;;5121649;28;19934;-55
2022/01/08 12:03:23;;;;;;;;;;;23.00;21.30;;;;;;5124737;28;19975;-48
2022/01/08 12:05:49;;;;;;;;;;;23.00;21.30;;;;;;5120654;28;19941;-48
2022/01/08 12:08:16;;;;;;;;;;;23.00;21.40;;;;;;5125812;28;20026;-51
2022/01/08 12:11:01;;;;;;;;;;;23.00;21.40;;;;;;5120618;28;19937;-50
2022/01/08 12:13:44;;;;;;;;;;;23.10;21.30;;;;;;5121015;28;20022;-47
2022/01/08 12:16:28;;;;;;;;;;;23.10;21.50;;;;;;5126003;28;20310;-46
2022/01/08 12:18:54;;;;;;;;;;;23.20;21.50;;;;;;5124190;28;20386;-56
2022/01/08 12:21:36;;;;;;;;;;;23.10;21.50;;;;;;5120439;28;19930;-48
2022/01/08 12:24:20;;;;;;;;;;;23.00;21.70;;;;;;5123435;28;20664;-54
2022/01/08 12:26:46;;;;;;;;;;;22.90;21.90;;;;;;5126029;28;19923;-49
2022/01/08 12:29:30;;;;;;;;;;;23.00;21.90;;;;;;5120500;28;19923;-50
2022/01/08 12:32:15;;;;;;;;;;;22.90;22.00;;;;;;5117393;28;20291;-49
2022/01/08 12:34:49;;;;;;;;;;;22.90;22.10;;;;;;5126030;28;20026;-48
2022/01/08 12:37:15;;;;;;;;;;;22.90;22.20;;;;;;5118254;28;20447;-49
2022/01/08 12:39:43;;;;;;;;;;;22.90;22.20;;;;;;5120402;28;19976;-48
2022/01/08 12:42:25;;;;;;;;;;;22.90;22.20;;;;;;5125516;28;19931;-51
2022/01/08 12:45:10;;;;;;;;;;;23.00;22.10;;;;;;5120176;28;20426;-50
2022/01/08 12:47:56;;;;;;;;;;;23.00;22.10;;;;;;5120093;28;20079;-49
2022/01/08 12:50:36;;;;;;;;;;;23.10;22.10;;;;;;5125054;28;22197;-49
2022/01/08 12:53:05;;;;;;;;;;;23.00;22.10;;;;;;5120340;28;19923;-49
2022/01/08 12:55:30;;;;;;;;;;;23.00;22.10;;;;;;5118007;28;19923;-50
2022/01/08 12:57:56;;;;;;;;;;;23.00;22.20;;;;;;5126025;28;20271;-50
2022/01/08 13:00:22;;;;;;;;;;;23.10;22.10;;;;;;5120125;28;19924;-49
2022/01/08 13:02:48;;;;;;;;;;;23.10;22.20;;;;;;5121544;28;20367;-57
2022/01/08 13:05:14;;;;;;;;;;;23.00;22.30;;;;;;5124122;28;20382;-50
2022/01/08 13:07:49;;;;;;;;;;;23.10;22.20;;;;;;5120026;28;19935;-48
2022/01/08 13:10:18;;;;;;;;;;;23.10;22.20;;;;;;5125470;28;19946;-48
2022/01/08 13:13:02;;;;;;;;;;;23.10;22.10;;;;;;5119159;28;20359;-48
2022/01/08 13:15:29;;;;;;;;;;;23.20;22.10;;;;;;5119431;28;19923;-46
2022/01/08 13:17:54;;;;;;;;;;;23.30;22.00;;;;;;5125160;28;20141;-48
2022/01/08 13:20:22;;;;;;;;;;;23.30;22.00;;;;;;5119730;28;19934;-50
2022/01/08 13:22:48;;;;;;;;;;;23.10;22.10;;;;;;5119609;28;19950;-55
2022/01/08 13:25:14;;;;;;;;;;;22.80;22.30;;;;;;5125321;28;19972;-53
2022/01/08 13:27:40;;;;;;;;;;;22.90;22.20;;;;;;5119538;28;19927;-49
2022/01/08 13:30:09;;;;;;;;;;;22.90;22.30;;;;;;5100475;28;19924;-51
2022/01/08 13:32:35;;;;;;;;;;;22.90;22.40;;;;;;5122788;28;19987;-52
2022/01/08 13:35:01;;;;;;;;;;;22.90;22.50;;;;;;5119810;28;20383;-49
2022/01/08 13:37:27;;;;;;;;;;;22.90;22.50;;;;;;5124941;28;20014;-51
2022/01/08 13:40:00;;;;;;;;;;;22.90;22.50;;;;;;5101183;28;20371;-51
2022/01/08 13:42:26;;;;;;;;;;;22.90;22.30;;;;;;5120439;27;19974;-50
2022/01/08 13:44:55;;;;;;;;;;;23.00;22.10;;;;;;5128767;28;19923;-50
2022/01/08 13:47:22;;;;;;;;;;;23.00;22.00;;;;;;5123152;28;19927;-50
2022/01/08 13:49:48;;;;;;;;;;;23.10;21.80;;;;;;5122335;28;19923;-50
2022/01/08 13:52:19;;;;;;;;;;;23.00;21.80;;;;;;5127192;28;19949;-46
2022/01/08 13:54:44;;;;;;;;;;;23.10;21.60;;;;;;5123023;28;19924;-49
2022/01/08 13:57:14;;;;;;;;;;;23.10;21.60;;;;;;5104411;28;19942;-48
2022/01/08 13:59:39;;;;;;;;;;;23.10;21.60;;;;;;5109643;28;19924;-47
2022/01/08 14:02:05;;;;;;;;;;;23.00;21.80;;;;;;5122697;28;19929;-47
2022/01/08 14:04:31;;;;;;;;;;;23.10;21.80;;;;;;5128361;28;20279;-47
2022/01/08 14:06:57;;;;;;;;;;;23.10;21.80;;;;;;5122822;28;19935;-46
2022/01/08 14:09:23;;;;;;;;;;;23.20;21.80;;;;;;5120816;28;19927;-53
2022/01/08 14:11:49;;;;;;;;;;;23.10;21.80;;;;;;5128277;28;19957;-49
2022/01/08 14:14:21;;;;;;;;;;;23.00;21.80;;;;;;5122256;28;19993;-52
2022/01/08 14:16:47;;;;;;;;;;;23.00;21.70;;;;;;5105140;28;19974;-51
2022/01/08 14:19:17;;;;;;;;;;;23.00;21.70;;;;;;5127777;28;19931;-49
2022/01/08 14:22:12;;;;;;;;;;;23.00;21.60;;;;;;5122367;28;19931;-49
2022/01/08 14:24:39;;;;;;;;;;;23.00;21.60;;;;;;5100695;28;19923;-52
2022/01/08 14:27:09;;;;;;;;;;;23.10;21.50;;;;;;5126338;28;20332;-50
2022/01/08 14:29:38;;;;;;;;;;;23.10;21.50;;;;;;5121871;28;19927;-46
2022/01/08 14:32:04;;;;;;;;;;;23.30;21.40;;;;;;5122398;28;19939;-59
2022/01/08 14:34:31;;;;;;;;;;;23.20;21.50;;;;;;5127305;28;19934;-50
2022/01/08 14:37:00;;;;;;;;;;;23.00;21.60;;;;;;5122160;28;19972;-53
2022/01/08 14:39:32;;;;;;;;;;;22.90;21.80;;;;;;5127220;28;20038;-56